sensor_id;sensor_type;location;lat;lon;timestamp;pressure;altitude;pressure_sealevel;temperature
33267;BMP180;19638;49.080;11.896;2022-12-29T00:00:48;96042.00;;;3.20
33267;BMP180;19638;49.080;11.896;2022-12-29T00:04:56;96036.00;;;3.30
33267;BMP180;19638;49.080;11.896;2022-12-29T00:09:01;96040.00;;;3.30
33267;BMP180;19638;49.080;11.896;2022-12-29T00:13:38;96050.00;;;3.40
33267;BMP180;19638;49.080;11.896;2022-12-29T00:18:00;96042.00;;;3.40
33267;BMP180;19638;49.080;11.896;2022-12-29T00:22:03;96034.00;;;3.40
33267;BMP180;19638;49.080;11.896;2022-12-29T00:26:23;96024.00;;;3.50
33267;BMP180;19638;49.080;11.896;2022-12-29T00:31:07;96017.00;;;3.50
33267;BMP180;19638;49.080;11.896;2022-12-29T00:35:30;96009.00;;;3.50
33267;BMP180;19638;49.080;11.896;2022-12-29T00:39:34;96013.00;;;3.60
33267;BMP180;19638;49.080;11.896;2022-12-29T00:43:55;96027.00;;;3.60
33267;BMP180;19638;49.080;11.896;2022-12-29T00:48:30;96021.00;;;3.60
33267;BMP180;19638;49.080;11.896;2022-12-29T00:53:00;96008.00;;;3.50
33267;BMP180;19638;49.080;11.896;2022-12-29T00:57:10;96007.00;;;3.50
33267;BMP180;19638;49.080;11.896;2022-12-29T01:01:15;96001.00;;;3.50
33267;BMP180;19638;49.080;11.896;2022-12-29T01:05:19;96007.00;;;3.50
33267;BMP180;19638;49.080;11.896;2022-12-29T01:09:23;96006.00;;;3.60
33267;BMP180;19638;49.080;11.896;2022-12-29T01:13:57;96005.00;;;3.60
33267;BMP180;19638;49.080;11.896;2022-12-29T01:18:00;96009.00;;;3.60
33267;BMP180;19638;49.080;11.896;2022-12-29T01:22:03;96017.00;;;3.60
33267;BMP180;19638;49.080;11.896;2022-12-29T01:26:41;96007.00;;;3.60
33267;BMP180;19638;49.080;11.896;2022-12-29T01:30:44;95999.00;;;3.60
33267;BMP180;19638;49.080;11.896;2022-12-29T01:34:50;95997.00;;;3.60
33267;BMP180;19638;49.080;11.896;2022-12-29T01:39:24;95997.00;;;3.50
33267;BMP180;19638;49.080;11.896;2022-12-29T01:43:41;95986.00;;;3.50
33267;BMP180;19638;49.080;11.896;2022-12-29T01:47:48;95988.00;;;3.50
33267;BMP180;19638;49.080;11.896;2022-12-29T01:51:55;95988.00;;;3.50
33267;BMP180;19638;49.080;11.896;2022-12-29T01:56:06;95979.00;;;3.50
33267;BMP180;19638;49.080;11.896;2022-12-29T02:00:39;95984.00;;;3.50
33267;BMP180;19638;49.080;11.896;2022-12-29T02:04:43;95981.00;;;3.50
33267;BMP180;19638;49.080;11.896;2022-12-29T02:08:47;95973.00;;;3.60
33267;BMP180;19638;49.080;11.896;2022-12-29T02:12:52;95954.00;;;3.50
33267;BMP180;19638;49.080;11.896;2022-12-29T02:17:07;95959.00;;;3.50
33267;BMP180;19638;49.080;11.896;2022-12-29T02:21:33;95953.00;;;3.40
33267;BMP180;19638;49.080;11.896;2022-12-29T02:25:52;95947.00;;;3.40
33267;BMP180;19638;49.080;11.896;2022-12-29T02:30:37;95958.00;;;3.40
33267;BMP180;19638;49.080;11.896;2022-12-29T02:34:47;95964.00;;;3.40
33267;BMP180;19638;49.080;11.896;2022-12-29T02:38:59;95965.00;;;3.40
33267;BMP180;19638;49.080;11.896;2022-12-29T02:43:14;95935.00;;;3.50
33267;BMP180;19638;49.080;11.896;2022-12-29T02:47:47;95935.00;;;3.50
33267;BMP180;19638;49.080;11.896;2022-12-29T02:52:01;95931.00;;;3.50
33267;BMP180;19638;49.080;11.896;2022-12-29T02:56:05;95924.00;;;3.60
33267;BMP180;19638;49.080;11.896;2022-12-29T03:00:15;95937.00;;;3.60
33267;BMP180;19638;49.080;11.896;2022-12-29T03:04:31;95952.00;;;3.70
33267;BMP180;19638;49.080;11.896;2022-12-29T03:08:44;95934.00;;;3.80
33267;BMP180;19638;49.080;11.896;2022-12-29T03:12:59;95929.00;;;3.80
33267;BMP180;19638;49.080;11.896;2022-12-29T03:17:27;95934.00;;;3.90
33267;BMP180;19638;49.080;11.896;2022-12-29T03:21:41;95931.00;;;3.90
33267;BMP180;19638;49.080;11.896;2022-12-29T03:26:05;95924.00;;;3.90
33267;BMP180;19638;49.080;11.896;2022-12-29T03:30:11;95922.00;;;4.00
33267;BMP180;19638;49.080;11.896;2022-12-29T03:34:20;95909.00;;;4.00
33267;BMP180;19638;49.080;11.896;2022-12-29T03:38:30;95911.00;;;3.90
33267;BMP180;19638;49.080;11.896;2022-12-29T03:42:36;95914.00;;;4.00
33267;BMP180;19638;49.080;11.896;2022-12-29T03:46:45;95907.00;;;4.00
33267;BMP180;19638;49.080;11.896;2022-12-29T03:50:50;95911.00;;;4.00
33267;BMP180;19638;49.080;11.896;2022-12-29T03:55:01;95906.00;;;4.00
33267;BMP180;19638;49.080;11.896;2022-12-29T03:59:04;95903.00;;;4.10
33267;BMP180;19638;49.080;11.896;2022-12-29T04:03:08;95902.00;;;4.10
33267;BMP180;19638;49.080;11.896;2022-12-29T04:07:12;95901.00;;;4.20
33267;BMP180;19638;49.080;11.896;2022-12-29T04:11:17;95905.00;;;4.20
33267;BMP180;19638;49.080;11.896;2022-12-29T04:15:20;95904.00;;;4.30
33267;BMP180;19638;49.080;11.896;2022-12-29T04:19:28;95913.00;;;4.30
33267;BMP180;19638;49.080;11.896;2022-12-29T04:23:33;95907.00;;;4.30
33267;BMP180;19638;49.080;11.896;2022-12-29T04:27:40;95908.00;;;4.30
33267;BMP180;19638;49.080;11.896;2022-12-29T04:31:46;95911.00;;;4.30
33267;BMP180;19638;49.080;11.896;2022-12-29T04:35:49;95909.00;;;4.30
33267;BMP180;19638;49.080;11.896;2022-12-29T04:39:53;95912.00;;;4.30
33267;BMP180;19638;49.080;11.896;2022-12-29T04:44:00;95916.00;;;4.20
33267;BMP180;19638;49.080;11.896;2022-12-29T04:48:04;95912.00;;;4.30
33267;BMP180;19638;49.080;11.896;2022-12-29T04:52:08;95918.00;;;4.30
33267;BMP180;19638;49.080;11.896;2022-12-29T04:56:13;95917.00;;;4.30
33267;BMP180;19638;49.080;11.896;2022-12-29T05:00:21;95918.00;;;4.30
33267;BMP180;19638;49.080;11.896;2022-12-29T05:04:25;95919.00;;;4.30
33267;BMP180;19638;49.080;11.896;2022-12-29T05:08:30;95916.00;;;4.20
33267;BMP180;19638;49.080;11.896;2022-12-29T05:12:36;95911.00;;;4.10
33267;BMP180;19638;49.080;11.896;2022-12-29T05:16:41;95917.00;;;4.00
33267;BMP180;19638;49.080;11.896;2022-12-29T05:20:45;95919.00;;;4.00
33267;BMP180;19638;49.080;11.896;2022-12-29T05:24:54;95915.00;;;3.90
33267;BMP180;19638;49.080;11.896;2022-12-29T05:29:00;95907.00;;;3.90
33267;BMP180;19638;49.080;11.896;2022-12-29T05:33:05;95907.00;;;3.90
33267;BMP180;19638;49.080;11.896;2022-12-29T05:37:11;95912.00;;;3.90
33267;BMP180;19638;49.080;11.896;2022-12-29T05:41:21;95912.00;;;3.80
33267;BMP180;19638;49.080;11.896;2022-12-29T05:45:25;95908.00;;;3.80
33267;BMP180;19638;49.080;11.896;2022-12-29T05:49:29;95916.00;;;3.70
33267;BMP180;19638;49.080;11.896;2022-12-29T05:53:39;95902.00;;;3.70
33267;BMP180;19638;49.080;11.896;2022-12-29T05:57:42;95905.00;;;3.70
33267;BMP180;19638;49.080;11.896;2022-12-29T06:01:45;95905.00;;;3.80
33267;BMP180;19638;49.080;11.896;2022-12-29T06:05:52;95910.00;;;3.80
33267;BMP180;19638;49.080;11.896;2022-12-29T06:09:58;95899.00;;;3.90
33267;BMP180;19638;49.080;11.896;2022-12-29T06:14:01;95912.00;;;4.00
33267;BMP180;19638;49.080;11.896;2022-12-29T06:18:04;95915.00;;;4.00
33267;BMP180;19638;49.080;11.896;2022-12-29T06:22:09;95910.00;;;4.00
33267;BMP180;19638;49.080;11.896;2022-12-29T06:26:13;95911.00;;;4.00
33267;BMP180;19638;49.080;11.896;2022-12-29T06:30:20;95907.00;;;4.00
33267;BMP180;19638;49.080;11.896;2022-12-29T06:34:23;95916.00;;;4.00
33267;BMP180;19638;49.080;11.896;2022-12-29T06:38:29;95917.00;;;3.90
33267;BMP180;19638;49.080;11.896;2022-12-29T06:42:32;95924.00;;;3.90
33267;BMP180;19638;49.080;11.896;2022-12-29T06:46:37;95925.00;;;3.90
33267;BMP180;19638;49.080;11.896;2022-12-29T06:50:41;95928.00;;;3.80
33267;BMP180;19638;49.080;11.896;2022-12-29T06:54:46;95927.00;;;3.70
33267;BMP180;19638;49.080;11.896;2022-12-29T06:58:53;95927.00;;;3.60
33267;BMP180;19638;49.080;11.896;2022-12-29T07:02:56;95927.00;;;3.50
33267;BMP180;19638;49.080;11.896;2022-12-29T07:07:01;95926.00;;;3.40
33267;BMP180;19638;49.080;11.896;2022-12-29T07:11:05;95922.00;;;3.40
33267;BMP180;19638;49.080;11.896;2022-12-29T07:15:09;95924.00;;;3.30
33267;BMP180;19638;49.080;11.896;2022-12-29T07:19:13;95920.00;;;3.30
33267;BMP180;19638;49.080;11.896;2022-12-29T07:23:19;95927.00;;;3.30
33267;BMP180;19638;49.080;11.896;2022-12-29T07:27:23;95917.00;;;3.20
33267;BMP180;19638;49.080;11.896;2022-12-29T07:31:27;95921.00;;;3.20
33267;BMP180;19638;49.080;11.896;2022-12-29T07:35:31;95905.00;;;3.20
33267;BMP180;19638;49.080;11.896;2022-12-29T07:39:36;95903.00;;;3.20
33267;BMP180;19638;49.080;11.896;2022-12-29T07:43:50;95907.00;;;3.20
33267;BMP180;19638;49.080;11.896;2022-12-29T07:47:53;95914.00;;;3.30
33267;BMP180;19638;49.080;11.896;2022-12-29T07:51:56;95917.00;;;3.40
33267;BMP180;19638;49.080;11.896;2022-12-29T07:55:59;95911.00;;;3.40
33267;BMP180;19638;49.080;11.896;2022-12-29T08:00:08;95914.00;;;3.50
33267;BMP180;19638;49.080;11.896;2022-12-29T08:04:11;95926.00;;;3.60
33267;BMP180;19638;49.080;11.896;2022-12-29T08:08:17;95928.00;;;3.70
33267;BMP180;19638;49.080;11.896;2022-12-29T08:22:45;95944.00;;;4.00
33267;BMP180;19638;49.080;11.896;2022-12-29T08:27:19;95957.00;;;4.10
33267;BMP180;19638;49.080;11.896;2022-12-29T08:36:33;95954.00;;;4.40
33267;BMP180;19638;49.080;11.896;2022-12-29T08:40:37;95958.00;;;4.60
33267;BMP180;19638;49.080;11.896;2022-12-29T08:44:40;95959.00;;;4.70
33267;BMP180;19638;49.080;11.896;2022-12-29T08:48:47;95959.00;;;4.80
33267;BMP180;19638;49.080;11.896;2022-12-29T08:58:02;95966.00;;;4.90
33267;BMP180;19638;49.080;11.896;2022-12-29T09:02:34;95970.00;;;5.00
33267;BMP180;19638;49.080;11.896;2022-12-29T09:12:24;95973.00;;;5.20
33267;BMP180;19638;49.080;11.896;2022-12-29T09:16:37;95973.00;;;5.30
33267;BMP180;19638;49.080;11.896;2022-12-29T09:20:41;95971.00;;;5.40
33267;BMP180;19638;49.080;11.896;2022-12-29T09:25:17;95961.00;;;5.50
33267;BMP180;19638;49.080;11.896;2022-12-29T09:29:21;95959.00;;;5.60
33267;BMP180;19638;49.080;11.896;2022-12-29T09:33:29;95954.00;;;5.70
33267;BMP180;19638;49.080;11.896;2022-12-29T09:38:02;95955.00;;;5.70
33267;BMP180;19638;49.080;11.896;2022-12-29T09:42:08;95957.00;;;5.90
33267;BMP180;19638;49.080;11.896;2022-12-29T09:46:42;95961.00;;;6.00
33267;BMP180;19638;49.080;11.896;2022-12-29T09:51:18;95954.00;;;6.10
33267;BMP180;19638;49.080;11.896;2022-12-29T10:00:01;95937.00;;;6.30
33267;BMP180;19638;49.080;11.896;2022-12-29T10:04:34;95931.00;;;6.60
33267;BMP180;19638;49.080;11.896;2022-12-29T10:14:17;95931.00;;;7.50
33267;BMP180;19638;49.080;11.896;2022-12-29T10:19:00;95939.00;;;7.60
33267;BMP180;19638;49.080;11.896;2022-12-29T10:23:35;95925.00;;;7.90
33267;BMP180;19638;49.080;11.896;2022-12-29T10:28:15;95912.00;;;8.30
33267;BMP180;19638;49.080;11.896;2022-12-29T10:32:31;95913.00;;;8.50
33267;BMP180;19638;49.080;11.896;2022-12-29T10:37:02;95909.00;;;8.60
33267;BMP180;19638;49.080;11.896;2022-12-29T10:41:36;95901.00;;;8.60
33267;BMP180;19638;49.080;11.896;2022-12-29T10:46:15;95902.00;;;8.70
33267;BMP180;19638;49.080;11.896;2022-12-29T10:50:55;95892.00;;;8.90
33267;BMP180;19638;49.080;11.896;2022-12-29T10:55:27;95892.00;;;9.00
33267;BMP180;19638;49.080;11.896;2022-12-29T10:59:36;95890.00;;;9.10
33267;BMP180;19638;49.080;11.896;2022-12-29T11:04:14;95887.00;;;9.30
33267;BMP180;19638;49.080;11.896;2022-12-29T11:13:49;95889.00;;;10.00
33267;BMP180;19638;49.080;11.896;2022-12-29T11:18:21;95885.00;;;10.30
33267;BMP180;19638;49.080;11.896;2022-12-29T11:22:56;95890.00;;;10.60
33267;BMP180;19638;49.080;11.896;2022-12-29T11:27:14;95879.00;;;10.80
33267;BMP180;19638;49.080;11.896;2022-12-29T11:31:45;95875.00;;;10.90
33267;BMP180;19638;49.080;11.896;2022-12-29T11:35:49;95881.00;;;10.90
33267;BMP180;19638;49.080;11.896;2022-12-29T11:40:26;95872.00;;;11.00
33267;BMP180;19638;49.080;11.896;2022-12-29T11:44:37;95863.00;;;11.30
33267;BMP180;19638;49.080;11.896;2022-12-29T11:48:42;95874.00;;;11.80
33267;BMP180;19638;49.080;11.896;2022-12-29T11:57:54;95868.00;;;12.00
33267;BMP180;19638;49.080;11.896;2022-12-29T12:07:01;95865.00;;;12.30
33267;BMP180;19638;49.080;11.896;2022-12-29T12:11:29;95865.00;;;12.40
33267;BMP180;19638;49.080;11.896;2022-12-29T12:15:44;95855.00;;;12.50
33267;BMP180;19638;49.080;11.896;2022-12-29T12:20:18;95860.00;;;12.50
33267;BMP180;19638;49.080;11.896;2022-12-29T12:24:51;95849.00;;;12.40
33267;BMP180;19638;49.080;11.896;2022-12-29T12:29:25;95847.00;;;12.40
33267;BMP180;19638;49.080;11.896;2022-12-29T12:34:00;95838.00;;;12.40
33267;BMP180;19638;49.080;11.896;2022-12-29T12:38:37;95838.00;;;12.40
33267;BMP180;19638;49.080;11.896;2022-12-29T12:48:05;95832.00;;;12.40
33267;BMP180;19638;49.080;11.896;2022-12-29T12:52:18;95835.00;;;12.40
33267;BMP180;19638;49.080;11.896;2022-12-29T12:56:46;95828.00;;;12.40
33267;BMP180;19638;49.080;11.896;2022-12-29T13:01:01;95830.00;;;12.50
33267;BMP180;19638;49.080;11.896;2022-12-29T13:05:33;95837.00;;;12.60
33267;BMP180;19638;49.080;11.896;2022-12-29T13:09:52;95834.00;;;12.60
33267;BMP180;19638;49.080;11.896;2022-12-29T13:14:23;95836.00;;;12.60
33267;BMP180;19638;49.080;11.896;2022-12-29T13:18:55;95815.00;;;12.70
33267;BMP180;19638;49.080;11.896;2022-12-29T13:23:32;95830.00;;;12.70
33267;BMP180;19638;49.080;11.896;2022-12-29T13:28:06;95835.00;;;12.80
33267;BMP180;19638;49.080;11.896;2022-12-29T13:32:44;95824.00;;;12.80
33267;BMP180;19638;49.080;11.896;2022-12-29T13:36:54;95826.00;;;12.80
33267;BMP180;19638;49.080;11.896;2022-12-29T13:41:03;95818.00;;;12.80
33267;BMP180;19638;49.080;11.896;2022-12-29T13:45:43;95826.00;;;12.70
33267;BMP180;19638;49.080;11.896;2022-12-29T13:50:02;95815.00;;;12.60
33267;BMP180;19638;49.080;11.896;2022-12-29T13:54:14;95835.00;;;12.70
33267;BMP180;19638;49.080;11.896;2022-12-29T13:58:48;95832.00;;;12.60
33267;BMP180;19638;49.080;11.896;2022-12-29T14:07:37;95832.00;;;12.50
33267;BMP180;19638;49.080;11.896;2022-12-29T14:16:57;95826.00;;;12.40
33267;BMP180;19638;49.080;11.896;2022-12-29T14:21:21;95839.00;;;12.40
33267;BMP180;19638;49.080;11.896;2022-12-29T14:25:59;95834.00;;;12.30
33267;BMP180;19638;49.080;11.896;2022-12-29T14:30:03;95846.00;;;12.30
33267;BMP180;19638;49.080;11.896;2022-12-29T14:34:43;95852.00;;;12.30
33267;BMP180;19638;49.080;11.896;2022-12-29T14:39:28;95861.00;;;12.20
33267;BMP180;19638;49.080;11.896;2022-12-29T14:43:55;95862.00;;;12.20
33267;BMP180;19638;49.080;11.896;2022-12-29T14:48:31;95863.00;;;12.10
33267;BMP180;19638;49.080;11.896;2022-12-29T14:53:40;95868.00;;;12.10
33267;BMP180;19638;49.080;11.896;2022-12-29T14:57:36;95875.00;;;12.00
33267;BMP180;19638;49.080;11.896;2022-12-29T15:02:13;95862.00;;;11.90
33267;BMP180;19638;49.080;11.896;2022-12-29T15:06:22;95873.00;;;11.90
33267;BMP180;19638;49.080;11.896;2022-12-29T15:10:37;95877.00;;;11.90
33267;BMP180;19638;49.080;11.896;2022-12-29T15:15:16;95873.00;;;11.80
33267;BMP180;19638;49.080;11.896;2022-12-29T15:19:21;95873.00;;;11.80
33267;BMP180;19638;49.080;11.896;2022-12-29T15:23:27;95880.00;;;11.70
33267;BMP180;19638;49.080;11.896;2022-12-29T15:28:05;95881.00;;;11.60
33267;BMP180;19638;49.080;11.896;2022-12-29T15:32:19;95880.00;;;11.60
33267;BMP180;19638;49.080;11.896;2022-12-29T15:36:46;95875.00;;;11.50
33267;BMP180;19638;49.080;11.896;2022-12-29T15:40:53;95883.00;;;11.40
33267;BMP180;19638;49.080;11.896;2022-12-29T15:45:30;95885.00;;;11.30
33267;BMP180;19638;49.080;11.896;2022-12-29T15:49:35;95891.00;;;11.20
33267;BMP180;19638;49.080;11.896;2022-12-29T15:58:19;95884.00;;;11.00
33267;BMP180;19638;49.080;11.896;2022-12-29T16:02:55;95873.00;;;10.80
33267;BMP180;19638;49.080;11.896;2022-12-29T16:07:01;95882.00;;;10.70
33267;BMP180;19638;49.080;11.896;2022-12-29T16:11:15;95882.00;;;10.60
33267;BMP180;19638;49.080;11.896;2022-12-29T16:15:45;95878.00;;;10.50
33267;BMP180;19638;49.080;11.896;2022-12-29T16:20:24;95884.00;;;10.50
33267;BMP180;19638;49.080;11.896;2022-12-29T16:24:32;95884.00;;;10.50
33267;BMP180;19638;49.080;11.896;2022-12-29T16:29:06;95887.00;;;10.60
33267;BMP180;19638;49.080;11.896;2022-12-29T16:33:46;95888.00;;;10.60
33267;BMP180;19638;49.080;11.896;2022-12-29T16:38:19;95874.00;;;10.60
33267;BMP180;19638;49.080;11.896;2022-12-29T16:42:34;95875.00;;;10.60
33267;BMP180;19638;49.080;11.896;2022-12-29T16:56:40;95877.00;;;10.70
33267;BMP180;19638;49.080;11.896;2022-12-29T17:01:11;95878.00;;;10.60
33267;BMP180;19638;49.080;11.896;2022-12-29T17:10:23;95895.00;;;10.40
33267;BMP180;19638;49.080;11.896;2022-12-29T17:20:23;95896.00;;;10.20
33267;BMP180;19638;49.080;11.896;2022-12-29T17:24:59;95899.00;;;10.20
33267;BMP180;19638;49.080;11.896;2022-12-29T17:29:37;95901.00;;;10.30
33267;BMP180;19638;49.080;11.896;2022-12-29T17:38:52;95887.00;;;10.40
33267;BMP180;19638;49.080;11.896;2022-12-29T17:43:24;95898.00;;;10.40
33267;BMP180;19638;49.080;11.896;2022-12-29T17:48:01;95887.00;;;10.50
33267;BMP180;19638;49.080;11.896;2022-12-29T17:52:37;95891.00;;;10.60
33267;BMP180;19638;49.080;11.896;2022-12-29T17:57:17;95890.00;;;10.70
33267;BMP180;19638;49.080;11.896;2022-12-29T18:01:54;95894.00;;;10.80
33267;BMP180;19638;49.080;11.896;2022-12-29T18:06:11;95883.00;;;10.90
33267;BMP180;19638;49.080;11.896;2022-12-29T18:10:27;95879.00;;;10.80
33267;BMP180;19638;49.080;11.896;2022-12-29T18:15:01;95885.00;;;10.80
33267;BMP180;19638;49.080;11.896;2022-12-29T18:19:08;95879.00;;;10.70
33267;BMP180;19638;49.080;11.896;2022-12-29T18:23:17;95882.00;;;10.60
33267;BMP180;19638;49.080;11.896;2022-12-29T18:27:46;95876.00;;;10.50
33267;BMP180;19638;49.080;11.896;2022-12-29T18:32:22;95888.00;;;10.30
33267;BMP180;19638;49.080;11.896;2022-12-29T18:36:57;95896.00;;;10.30
33267;BMP180;19638;49.080;11.896;2022-12-29T18:41:31;95903.00;;;10.30
33267;BMP180;19638;49.080;11.896;2022-12-29T18:45:35;95913.00;;;10.30
33267;BMP180;19638;49.080;11.896;2022-12-29T18:50:13;95925.00;;;10.30
33267;BMP180;19638;49.080;11.896;2022-12-29T18:54:47;95932.00;;;10.20
33267;BMP180;19638;49.080;11.896;2022-12-29T18:59:24;95940.00;;;10.20
33267;BMP180;19638;49.080;11.896;2022-12-29T19:04:02;95972.00;;;10.10
33267;BMP180;19638;49.080;11.896;2022-12-29T19:08:11;95970.00;;;10.00
33267;BMP180;19638;49.080;11.896;2022-12-29T19:12:17;95964.00;;;10.00
33267;BMP180;19638;49.080;11.896;2022-12-29T19:16:53;95955.00;;;9.90
33267;BMP180;19638;49.080;11.896;2022-12-29T19:21:30;95976.00;;;9.90
33267;BMP180;19638;49.080;11.896;2022-12-29T19:30:46;95964.00;;;10.10
33267;BMP180;19638;49.080;11.896;2022-12-29T19:34:53;95958.00;;;10.10
33267;BMP180;19638;49.080;11.896;2022-12-29T19:38:59;95966.00;;;10.20
33267;BMP180;19638;49.080;11.896;2022-12-29T19:48:15;95961.00;;;10.10
33267;BMP180;19638;49.080;11.896;2022-12-29T19:52:48;95964.00;;;10.10
33267;BMP180;19638;49.080;11.896;2022-12-29T19:57:30;95961.00;;;10.00
33267;BMP180;19638;49.080;11.896;2022-12-29T20:02:08;95964.00;;;10.00
33267;BMP180;19638;49.080;11.896;2022-12-29T20:06:43;95964.00;;;9.90
33267;BMP180;19638;49.080;11.896;2022-12-29T20:11:18;95960.00;;;9.80
33267;BMP180;19638;49.080;11.896;2022-12-29T20:15:59;95970.00;;;9.80
33267;BMP180;19638;49.080;11.896;2022-12-29T20:20:38;95962.00;;;9.70
33267;BMP180;19638;49.080;11.896;2022-12-29T20:24:43;95983.00;;;9.70
33267;BMP180;19638;49.080;11.896;2022-12-29T20:28:55;95976.00;;;9.70
33267;BMP180;19638;49.080;11.896;2022-12-29T20:33:30;95978.00;;;9.70
33267;BMP180;19638;49.080;11.896;2022-12-29T20:38:06;95981.00;;;9.70
33267;BMP180;19638;49.080;11.896;2022-12-29T20:42:45;95972.00;;;9.70
33267;BMP180;19638;49.080;11.896;2022-12-29T20:47:18;95964.00;;;9.70
33267;BMP180;19638;49.080;11.896;2022-12-29T20:51:58;95977.00;;;9.70
33267;BMP180;19638;49.080;11.896;2022-12-29T20:56:32;95963.00;;;9.70
33267;BMP180;19638;49.080;11.896;2022-12-29T21:01:11;95965.00;;;9.60
33267;BMP180;19638;49.080;11.896;2022-12-29T21:05:47;95979.00;;;9.60
33267;BMP180;19638;49.080;11.896;2022-12-29T21:09:55;95974.00;;;9.50
33267;BMP180;19638;49.080;11.896;2022-12-29T21:14:29;95963.00;;;9.40
33267;BMP180;19638;49.080;11.896;2022-12-29T21:18:44;95961.00;;;9.50
33267;BMP180;19638;49.080;11.896;2022-12-29T21:22:48;95963.00;;;9.50
33267;BMP180;19638;49.080;11.896;2022-12-29T21:26:51;95964.00;;;9.50
33267;BMP180;19638;49.080;11.896;2022-12-29T21:35:43;95963.00;;;9.60
33267;BMP180;19638;49.080;11.896;2022-12-29T21:39:48;95979.00;;;9.70
33267;BMP180;19638;49.080;11.896;2022-12-29T21:44:25;95988.00;;;9.70
33267;BMP180;19638;49.080;11.896;2022-12-29T21:49:05;95964.00;;;9.80
33267;BMP180;19638;49.080;11.896;2022-12-29T21:53:41;95975.00;;;9.80
33267;BMP180;19638;49.080;11.896;2022-12-29T21:57:44;95970.00;;;9.90
33267;BMP180;19638;49.080;11.896;2022-12-29T22:02:14;95975.00;;;9.80
33267;BMP180;19638;49.080;11.896;2022-12-29T22:06:40;95982.00;;;9.70
33267;BMP180;19638;49.080;11.896;2022-12-29T22:11:05;95989.00;;;9.70
33267;BMP180;19638;49.080;11.896;2022-12-29T22:15:28;95995.00;;;9.60
33267;BMP180;19638;49.080;11.896;2022-12-29T22:19:33;96000.00;;;9.60
33267;BMP180;19638;49.080;11.896;2022-12-29T22:24:08;96000.00;;;9.40
33267;BMP180;19638;49.080;11.896;2022-12-29T22:28:13;96008.00;;;9.40
33267;BMP180;19638;49.080;11.896;2022-12-29T22:32:19;96018.00;;;9.40
33267;BMP180;19638;49.080;11.896;2022-12-29T22:36:25;96020.00;;;9.30
33267;BMP180;19638;49.080;11.896;2022-12-29T22:41:00;96018.00;;;9.30
33267;BMP180;19638;49.080;11.896;2022-12-29T22:45:08;96031.00;;;9.20
33267;BMP180;19638;49.080;11.896;2022-12-29T22:49:11;96034.00;;;9.10
33267;BMP180;19638;49.080;11.896;2022-12-29T22:53:16;96032.00;;;9.00
33267;BMP180;19638;49.080;11.896;2022-12-29T22:57:54;96031.00;;;8.90
33267;BMP180;19638;49.080;11.896;2022-12-29T23:01:59;96042.00;;;8.80
33267;BMP180;19638;49.080;11.896;2022-12-29T23:06:04;96052.00;;;8.80
33267;BMP180;19638;49.080;11.896;2022-12-29T23:10:10;96059.00;;;8.70
33267;BMP180;19638;49.080;11.896;2022-12-29T23:19:12;96073.00;;;8.60
33267;BMP180;19638;49.080;11.896;2022-12-29T23:23:18;96086.00;;;8.60
33267;BMP180;19638;49.080;11.896;2022-12-29T23:27:52;96089.00;;;8.60
33267;BMP180;19638;49.080;11.896;2022-12-29T23:32:02;96087.00;;;8.50
33267;BMP180;19638;49.080;11.896;2022-12-29T23:36:07;96092.00;;;8.30
33267;BMP180;19638;49.080;11.896;2022-12-29T23:40:13;96098.00;;;8.30
33267;BMP180;19638;49.080;11.896;2022-12-29T23:44:21;96108.00;;;8.20
33267;BMP180;19638;49.080;11.896;2022-12-29T23:48:24;96125.00;;;8.20
33267;BMP180;19638;49.080;11.896;2022-12-29T23:53:03;96137.00;;;8.10
33267;BMP180;19638;49.080;11.896;2022-12-29T23:57:06;96136.00;;;8.00
